Novi Sad, Serbia

12:44 PM CEST on September 05, 2015 (GMT +0200)
Vezirac | | Change Station
CLOSE
Current Station
Personal Weather Station
Location: Novi Sad, Vojvodina
Elevation: 614 ft
Nearby Weather Stations

Elev 614 ft 45.21 °N, 19.90 °E | Updated 3 minutes ago

Overcast
Overcast
74.8 °F
Feels Like 76 °F
N
6.9
Wind Variable Wind from NW
Gusts 10.7 mph

Today
High -- | Low -- °F
--% Chance of Precip.
Yesterday
High -- | Low -- °F
Precip. -- in
6:06 AM 7:11 PM
Waning Gibbous, 50% visible
Pressure 29.86 in
Visibility 6.2 miles
Clouds Scattered Clouds 4000 ft
Heat Index 76 °F
Dew Point 68 °F
Humidity 74%
Rainfall 0.01 in
Snow Depth Not available.
UV 6 out of 12
Pollen Not available.
Air Quality Not available.
Flu Activity Not available.
METAR LYBE 051030Z 27011KT 9999 -RA SCT040 27/18 Q1011 NOSIG
Pressure 29.86 in
Visibility 6.2 miles
Clouds Scattered Clouds 4000 ft
Heat Index 76 °F
Dew Point 68 °F
Humidity 74%
Rainfall 0.01 in
Snow Depth Not available.
UV 6 out of 12
Pollen Not available.
Air Quality Not available.
Flu Activity Not available.
METAR LYBE 051030Z 27011KT 9999 -RA SCT040 27/18 Q1011 NOSIG

10-Day Weather Forecast

×

Almanac

Astronomy

Sep. 05, 2015 Rise Set
Actual Time
Civil Twilight
Nautical Twilight
Astronomical Twilight
Moon
Length of Visible Light
Length of Day
Tomorrow will be .
, % of the Moon is Illuminated

Today's Extremes

Country Highs Country Lows

Community

WunderPhotos

Upload Photos

1,852,439 photos uploaded!

WunderBlogs® & News

Nearby

Air Quality

  Air Quality AQ Index Pollutant
Not available.

Snow Depth

Station Depth Elevation

Earthquake Activity

City Distance Mag. Time & Date
Minimum magnitude displayed is 2.5.

Coastal Water Temperatures

Place Temperature

Stations

Nearby Weather Stations

Station Location Temp. Windchill Dew Point Humidity Wind Precip. Elev Updated Type